Terminal Aerodrome Forecast
Issued by NWS

Home | Current Version | Previous Version | Text Only | Print | Product List | Glossary On
Versions: 1 2 3 4 5 6 7 8 9 10 11 12 13 14
000
FTUS46 KOTX 261739
TAFPUW
TAF
KPUW 261739Z 2618/2718 28006KT P6SM FEW200
     FM262200 29008KT P6SM FEW080 SCT150
     FM270200 VRB02KT P6SM FEW200=

USA.gov is the U.S. government's official web portal to all federal, state and local government web resources and services.